Shepparton, Australia
Current Conditions -  °F | °C
As of 10:00 AM on Saturday 25 Oct 2014 (Local Time) from YMAY Reporting Station
Scattered Clouds Scattered Clouds  
Wind Chill: 70°   Ceiling: Unl
Heat Index: 70°   Visibility: 6mi
Dew Point: 57°   Wind: 6mph
Humidity: 64%   Direction: 150°SSE
Pressure: 30"   Gusts: NA
Location:  36.38°S, 145.4°E
Report Text: YMAY 242300Z AUTO 15005KT 9999 // SCT125 21/14 Q1016
Loading
Personal Weather Stations






























Interactive Weather Map
Tropical Storm Tracking
New forecast layout! Learn more

10-Day Weather Forecast

Advertisements
Track Severe Weather on mobile